Terminal Aerodrome Forecast
Issued by NWS

Home | Current Version | Previous Version | Text Only | Print | Product List | Glossary On
Versions: 1 2 3 4 5 6 7 8 9 10 11 12 13 14 15 16 17 18 19 20 21 22 23
000
FTUS46 KEKA 251741
TAFCEC
TAF
KCEC 251741Z 2518/2618 17034G42KT 2SM -SHRA BR SCT008 BKN014 OVC030
      WS010/18060KT
      TEMPO 2518/2519 1 1/2SM SHRA BR BKN010 OVC014
     FM251900 18032G42KT 6SM -SHRA SCT009 SCT015 OVC025
      WS010/18060KT
      TEMPO 2519/2523 3SM -TSRA SCT015 BKN025CB OVC035
     FM252300 22015KT P6SM -SHRA SCT012 BKN025
      TEMPO 2523/2601 3SM -TSRA BKN025CB
     FM260300 15013G18KT 3SM -SHRA BR SCT007 OVC015
     FM260600 15009KT 4SM -SHRA SCT007 SCT015 BKN025=

USA.gov is the U.S. government's official web portal to all federal, state and local government web resources and services.